Time;durP1;ratioP1;P1;durP2;ratioP2;P2;SDS_P1;SDS_P2;PMS_P1;PMS_P2;Temp;Humidity;BMP_temperature;BMP_pressure;BME280_temperature;BME280_humidity;BME280_pressure;Samples;Min_cycle;Max_cycle;Signal;HPM_P1;HPM_P2
2022/09/19 00:00:13;;;;;;;7.25;2.80;;;12.40;99.90;;;;;;5045578;28;20032;-67
2022/09/19 00:02:39;;;;;;;9.35;2.17;;;12.40;99.90;;;;;;5037734;28;20033;-67
2022/09/19 00:05:06;;;;;;;6.70;2.40;;;12.40;99.90;;;;;;5049654;28;20017;-67
2022/09/19 00:07:32;;;;;;;9.55;2.35;;;12.40;99.90;;;;;;5033822;28;20139;-67
2022/09/19 00:09:58;;;;;;;7.95;2.63;;;12.40;99.90;;;;;;5031640;28;20521;-67
2022/09/19 00:12:25;;;;;;;11.32;2.65;;;12.30;99.90;;;;;;5032420;28;20025;-67
2022/09/19 00:14:50;;;;;;;6.03;2.25;;;12.40;99.90;;;;;;5033088;28;20478;-67
2022/09/19 00:17:16;;;;;;;10.27;2.50;;;12.30;99.90;;;;;;5033521;28;20028;-66
2022/09/19 00:19:42;;;;;;;8.68;2.60;;;12.40;99.90;;;;;;5034343;28;20428;-67
2022/09/19 00:22:09;;;;;;;6.25;2.47;;;12.30;99.90;;;;;;5034102;28;20032;-67
2022/09/19 00:24:46;;;;;;;7.13;2.67;;;12.30;99.90;;;;;;5034178;28;20035;-67
2022/09/19 00:27:19;;;;;;;6.65;2.47;;;12.20;99.90;;;;;;5032528;28;20532;-66
2022/09/19 00:29:45;;;;;;;;;;;12.20;99.90;;;;;;5031843;28;20029;-66
2022/09/19 00:32:12;;;;;;;10.85;2.58;;;12.20;99.90;;;;;;5033334;28;19915;-67
2022/09/19 00:34:43;;;;;;;9.65;2.60;;;12.30;99.90;;;;;;5033194;28;20099;-66
2022/09/19 00:37:10;;;;;;;11.18;2.63;;;12.10;99.90;;;;;;5034366;28;20025;-67
2022/09/19 00:39:37;;;;;;;10.68;2.88;;;12.10;99.90;;;;;;5034146;28;20442;-66
2022/09/19 00:42:04;;;;;;;11.85;2.63;;;12.10;99.90;;;;;;5030991;28;20017;-66
2022/09/19 00:44:29;;;;;;;7.63;2.05;;;12.10;99.90;;;;;;5032604;28;20033;-66
2022/09/19 00:47:05;;;;;;;13.75;2.55;;;12.10;99.90;;;;;;5032427;28;20478;-66
2022/09/19 00:49:34;;;;;;;10.60;2.40;;;12.00;99.90;;;;;;5032420;28;20071;-67
2022/09/19 00:52:03;;;;;;;13.80;3.10;;;12.10;99.90;;;;;;5032699;28;20108;-66
2022/09/19 00:54:33;;;;;;;9.27;2.63;;;12.10;99.90;;;;;;5033934;28;20071;-66
2022/09/19 00:57:00;;;;;;;11.02;3.08;;;12.00;99.90;;;;;;5033072;28;20090;-67
2022/09/19 00:59:29;;;;;;;11.18;2.67;;;12.10;99.90;;;;;;5030316;28;20025;-66
2022/09/19 01:01:56;;;;;;;9.70;3.55;;;12.00;99.90;;;;;;5033166;28;20014;-66
2022/09/19 01:04:24;;;;;;;16.42;3.17;;;12.00;99.90;;;;;;5033156;28;20026;-66
2022/09/19 01:07:15;;;;;;;14.20;3.10;;;12.10;99.90;;;;;;5031959;28;20528;-67
2022/09/19 01:10:03;;;;;;;7.78;2.22;;;12.00;99.90;;;;;;5032259;28;20025;-67
2022/09/19 01:12:51;;;;;;;8.13;2.72;;;12.00;99.90;;;;;;5031908;28;20033;-67
2022/09/19 01:15:39;;;;;;;12.15;2.40;;;12.10;99.90;;;;;;5032716;28;20017;-66
2022/09/19 01:18:06;;;;;;;9.75;3.03;;;12.00;99.90;;;;;;5030267;28;20385;-66
2022/09/19 01:20:53;;;;;;;11.98;2.80;;;12.00;99.90;;;;;;5032480;28;20438;-66
2022/09/19 01:23:47;;;;;;;6.07;2.13;;;11.90;99.90;;;;;;5033117;28;20060;-66
2022/09/19 01:26:49;;;;;;;8.57;2.90;;;11.90;99.90;;;;;;5030771;28;20032;-66
2022/09/19 01:29:23;;;;;;;12.15;2.63;;;11.90;99.90;;;;;;5030258;28;20053;-66
2022/09/19 01:31:53;;;;;;;12.77;2.90;;;11.90;99.90;;;;;;5032836;28;20025;-67
2022/09/19 01:34:25;;;;;;;10.57;3.10;;;11.90;99.90;;;;;;5032009;28;20029;-67
2022/09/19 01:37:08;;;;;;;14.70;2.83;;;11.90;99.90;;;;;;5032723;28;20096;-67
2022/09/19 01:39:38;;;;;;;8.18;3.05;;;11.90;99.90;;;;;;5032380;28;20017;-66
2022/09/19 01:42:04;;;;;;;14.00;3.28;;;11.90;99.90;;;;;;5029929;28;20032;-66
2022/09/19 01:44:31;;;;;;;13.23;2.70;;;11.80;99.90;;;;;;5031985;28;20104;-66
2022/09/19 01:47:21;;;;;;;10.48;2.45;;;11.80;99.90;;;;;;5032086;28;20029;-66
2022/09/19 01:50:05;;;;;;;11.75;2.58;;;11.80;99.90;;;;;;5031113;28;20492;-67
2022/09/19 01:53:05;;;;;;;12.68;2.75;;;11.90;99.90;;;;;;5030818;28;20040;-67
2022/09/19 01:55:38;;;;;;;15.40;3.17;;;11.80;99.90;;;;;;5029856;28;20358;-66
2022/09/19 01:58:47;;;;;;;12.95;2.90;;;11.80;99.90;;;;;;5029160;28;20024;-66
2022/09/19 02:01:22;;;;;;;12.55;2.92;;;11.70;99.90;;;;;;5029610;28;20022;-67
2022/09/19 02:04:01;;;;;;;10.25;3.08;;;11.70;99.90;;;;;;5028105;28;20125;-66
2022/09/19 02:06:48;;;;;;;15.95;2.47;;;11.70;99.90;;;;;;5030437;28;20060;-66
2022/09/19 02:09:29;;;;;;;9.40;2.70;;;11.70;99.90;;;;;;5031638;28;20057;-66
2022/09/19 02:12:00;;;;;;;11.35;2.90;;;11.60;99.90;;;;;;5031517;28;20037;-66
2022/09/19 02:14:31;;;;;;;9.57;2.35;;;11.60;99.90;;;;;;5030777;28;20032;-66
2022/09/19 02:17:04;;;;;;;17.15;2.60;;;11.70;99.90;;;;;;5031561;28;20026;-66
2022/09/19 02:20:13;;;;;;;10.65;2.75;;;11.60;99.90;;;;;;5033301;28;20018;-66
2022/09/19 02:22:47;;;;;;;15.85;2.50;;;11.60;99.90;;;;;;5026530;28;20033;-66
2022/09/19 02:25:17;;;;;;;15.75;2.72;;;11.60;99.90;;;;;;5033051;28;20021;-66
2022/09/19 02:27:50;;;;;;;14.52;2.72;;;11.60;99.90;;;;;;5032974;28;20038;-66
2022/09/19 02:30:20;;;;;;;12.32;2.70;;;11.50;99.90;;;;;;5032285;28;20053;-66
2022/09/19 02:32:47;;;;;;;11.48;2.70;;;11.50;99.90;;;;;;5032962;28;20421;-66
2022/09/19 02:35:15;;;;;;;17.38;2.88;;;11.50;99.90;;;;;;5031899;28;20022;-66
2022/09/19 02:38:23;;;;;;;17.85;2.15;;;11.50;99.90;;;;;;5032702;28;20079;-66
2022/09/19 02:41:17;;;;;;;16.17;2.60;;;11.50;99.90;;;;;;5027822;28;20033;-67
2022/09/19 02:43:57;;;;;;;12.27;2.40;;;11.50;99.90;;;;;;5034057;28;20037;-67
2022/09/19 02:46:30;;;;;;;10.00;2.55;;;11.40;99.90;;;;;;5031466;28;20033;-66
2022/09/19 02:49:01;;;;;;;16.58;2.47;;;11.40;99.90;;;;;;5031369;28;20478;-66
2022/09/19 02:51:33;;;;;;;9.70;2.63;;;11.40;99.90;;;;;;5032620;28;20009;-67
2022/09/19 02:54:07;;;;;;;17.95;2.65;;;11.50;99.90;;;;;;5030899;28;20079;-66
2022/09/19 02:56:35;;;;;;;15.60;2.78;;;11.50;99.90;;;;;;5030202;28;20065;-66
2022/09/19 02:59:11;;;;;;;9.57;2.47;;;11.50;99.90;;;;;;5032294;28;20022;-66
2022/09/19 03:01:42;;;;;;;13.98;2.28;;;11.50;99.90;;;;;;5032454;28;20436;-66
2022/09/19 03:04:12;;;;;;;16.48;2.53;;;11.50;99.90;;;;;;5032505;28;20112;-67
2022/09/19 03:07:12;;;;;;;15.63;3.10;;;11.50;99.90;;;;;;5031835;28;20022;-67
2022/09/19 03:09:41;;;;;;;38.25;25.30;;;11.50;99.90;;;;;;5028306;28;20044;-66
2022/09/19 03:12:11;;;;;;;12.10;4.60;;;11.50;99.90;;;;;;5031706;28;20041;-67
2022/09/19 03:14:37;;;;;;;13.32;2.90;;;11.50;99.90;;;;;;5028029;28;20149;-66
2022/09/19 03:17:04;;;;;;;8.43;2.83;;;11.50;99.90;;;;;;5024833;28;20021;-66
2022/09/19 03:19:32;;;;;;;14.30;3.53;;;11.40;99.90;;;;;;5029656;28;20095;-66
2022/09/19 03:21:58;;;;;;;12.07;2.70;;;11.40;99.90;;;;;;5032393;28;20018;-66
2022/09/19 03:24:26;;;;;;;12.20;3.13;;;11.40;99.90;;;;;;5030341;28;20029;-66
2022/09/19 03:26:52;;;;;;;13.98;3.00;;;11.40;99.90;;;;;;5029578;28;20112;-66
2022/09/19 03:29:18;;;;;;;12.23;2.63;;;11.40;99.90;;;;;;5021928;28;20117;-66
2022/09/19 03:31:45;;;;;;;17.83;3.35;;;11.40;99.90;;;;;;5029770;28;20036;-67
2022/09/19 03:34:12;;;;;;;6.65;2.30;;;11.40;99.90;;;;;;5022079;28;20045;-66
2022/09/19 03:36:38;;;;;;;12.48;2.20;;;11.40;99.90;;;;;;5032130;28;20470;-66
2022/09/19 03:39:04;;;;;;;8.80;2.38;;;11.30;99.90;;;;;;5027635;28;20048;-66
2022/09/19 03:41:30;;;;;;;17.63;2.70;;;11.40;99.90;;;;;;5031594;28;20164;-66
2022/09/19 03:44:01;;;;;;;19.83;3.00;;;11.40;99.90;;;;;;5027340;28;20441;-66
2022/09/19 03:46:32;;;;;;;11.77;2.65;;;11.40;99.90;;;;;;5033937;28;20026;-67
2022/09/19 03:49:00;;;;;;;14.15;2.55;;;11.40;99.90;;;;;;5029311;28;20046;-66
2022/09/19 03:51:25;;;;;;;9.90;2.53;;;11.40;99.90;;;;;;5034242;28;20028;-66
2022/09/19 03:53:51;;;;;;;8.32;2.58;;;11.30;99.90;;;;;;5034228;28;20037;-66
2022/09/19 03:56:17;;;;;;;9.88;2.35;;;11.30;99.90;;;;;;5034832;28;20018;-66
2022/09/19 03:58:44;;;;;;;8.68;2.47;;;11.30;99.90;;;;;;5034127;28;20063;-66
2022/09/19 04:01:12;;;;;;;10.98;3.78;;;11.30;99.90;;;;;;5035648;28;20033;-66
2022/09/19 04:03:38;;;;;;;11.93;2.47;;;11.30;99.90;;;;;;5033946;28;20494;-67
2022/09/19 04:06:04;;;;;;;16.45;2.58;;;11.20;99.90;;;;;;5035161;28;20032;-66
2022/09/19 04:08:31;;;;;;;12.15;2.10;;;11.20;99.90;;;;;;5034196;28;20042;-66
2022/09/19 04:10:58;;;;;;;10.18;2.38;;;11.20;99.90;;;;;;5035146;28;20048;-66
2022/09/19 04:13:24;;;;;;;13.85;2.40;;;11.30;99.90;;;;;;5034627;28;20029;-66
2022/09/19 04:15:51;;;;;;;8.13;2.55;;;11.30;99.90;;;;;;5035330;28;20037;-66
2022/09/19 04:18:17;;;;;;;15.95;5.65;;;11.20;99.90;;;;;;5029703;28;20060;-66
2022/09/19 04:20:45;;;;;;;7.55;3.42;;;11.20;99.90;;;;;;5015314;28;20033;-66
2022/09/19 04:23:13;;;;;;;13.15;3.15;;;11.10;99.90;;;;;;5015398;28;20022;-67
2022/09/19 04:25:39;;;;;;;12.75;2.72;;;11.10;99.90;;;;;;5014526;28;20021;-66
2022/09/19 04:28:07;;;;;;;16.30;2.50;;;11.10;99.90;;;;;;5026645;28;20045;-66
2022/09/19 04:30:36;;;;;;;10.00;2.38;;;11.10;99.90;;;;;;5025003;28;20026;-66
2022/09/19 04:33:04;;;;;;;11.68;2.30;;;11.00;99.90;;;;;;5015009;28;20552;-66
2022/09/19 04:35:35;;;;;;;10.63;2.42;;;11.00;99.90;;;;;;5014178;28;20021;-66
2022/09/19 04:38:12;;;;;;;6.78;2.40;;;11.00;99.90;;;;;;5015019;28;20034;-66
2022/09/19 04:40:40;;;;;;;11.27;2.47;;;11.10;99.90;;;;;;5014907;28;20406;-67
2022/09/19 04:43:09;;;;;;;12.57;3.13;;;11.00;99.90;;;;;;5031203;28;20064;-66
2022/09/19 04:45:36;;;;;;;10.52;2.90;;;11.10;99.90;;;;;;5019916;28;20033;-66
2022/09/19 04:48:05;;;;;;;13.93;3.05;;;11.00;99.90;;;;;;5030387;28;20044;-68
2022/09/19 04:50:32;;;;;;;6.15;2.40;;;11.00;99.90;;;;;;5034442;28;20104;-67
2022/09/19 04:52:58;;;;;;;17.17;2.97;;;10.90;99.90;;;;;;5033491;28;20029;-67
2022/09/19 04:55:25;;;;;;;15.02;3.20;;;11.00;99.90;;;;;;5034525;28;20025;-67
2022/09/19 04:57:54;;;;;;;12.80;2.90;;;11.10;99.90;;;;;;5034812;28;20036;-66
2022/09/19 05:00:37;;;;;;;18.30;3.08;;;11.00;99.90;;;;;;5033542;28;20040;-67
2022/09/19 05:03:12;;;;;;;14.50;3.13;;;11.10;99.90;;;;;;5032889;28;20025;-67
2022/09/19 05:05:50;;;;;;;16.35;2.85;;;11.10;99.90;;;;;;5034146;28;20037;-67
2022/09/19 05:08:25;;;;;;;12.63;3.03;;;11.10;99.90;;;;;;5034252;28;20044;-67
2022/09/19 05:10:52;;;;;;;15.13;3.28;;;11.20;99.90;;;;;;5032890;28;20032;-67
2022/09/19 05:13:18;;;;;;;16.33;3.25;;;11.20;99.90;;;;;;5034053;28;20087;-67
2022/09/19 05:15:44;;;;;;;7.38;2.38;;;11.20;99.90;;;;;;5033752;28;20041;-67
2022/09/19 05:18:11;;;;;;;21.20;3.58;;;11.10;99.90;;;;;;5033973;28;20048;-67
2022/09/19 05:20:37;;;;;;;17.35;2.88;;;11.10;99.90;;;;;;5033826;28;20466;-66
2022/09/19 05:23:03;;;;;;;10.57;3.20;;;11.00;99.90;;;;;;5032668;28;20124;-67
2022/09/19 05:25:34;;;;;;;14.48;2.88;;;11.00;99.90;;;;;;5033409;28;20110;-67
2022/09/19 05:28:05;;;;;;;9.82;2.85;;;11.00;99.90;;;;;;5033587;28;20514;-67
2022/09/19 05:30:32;;;;;;;11.70;2.70;;;11.10;99.90;;;;;;5032638;28;20021;-67
2022/09/19 05:32:59;;;;;;;13.85;2.60;;;11.20;99.90;;;;;;5032970;28;20033;-68
2022/09/19 05:35:26;;;;;;;11.88;3.33;;;11.10;99.90;;;;;;5033206;28;20026;-69
2022/09/19 05:37:52;;;;;;;13.45;3.72;;;11.20;99.90;;;;;;5031807;28;20064;-69
2022/09/19 05:40:18;;;;;;;13.30;3.60;;;11.20;99.90;;;;;;5033427;28;20053;-67
2022/09/19 05:42:49;;;;;;;10.32;3.20;;;11.20;99.90;;;;;;5033108;28;20057;-67
2022/09/19 05:45:15;;;;;;;9.35;2.63;;;11.10;99.90;;;;;;5033520;28;20482;-66
2022/09/19 05:47:41;;;;;;;13.00;3.50;;;11.20;99.90;;;;;;5032366;28;20033;-67
2022/09/19 05:50:08;;;;;;;13.20;2.63;;;11.20;99.90;;;;;;5033497;28;20017;-67
2022/09/19 05:55:24;;;;;;;14.35;3.28;;;11.20;99.90;;;;;;5032355;28;20040;-67
2022/09/19 05:57:51;;;;;;;11.27;3.20;;;11.30;99.90;;;;;;5032675;28;20033;-67
2022/09/19 06:00:18;;;;;;;9.07;2.92;;;11.30;99.90;;;;;;5032781;28;20013;-67
2022/09/19 06:02:43;;;;;;;9.95;3.10;;;11.30;99.90;;;;;;5031590;28;20401;-67
2022/09/19 06:05:09;;;;;;;13.95;2.80;;;11.40;99.90;;;;;;5033080;28;20033;-67
2022/09/19 06:07:35;;;;;;;8.95;3.30;;;11.40;99.90;;;;;;5032070;28;20080;-67
2022/09/19 06:10:00;;;;;;;11.35;3.75;;;11.40;99.90;;;;;;5032317;28;20030;-67
2022/09/19 06:12:26;;;;;;;14.18;5.40;;;11.40;99.90;;;;;;5032377;28;20034;-66
2022/09/19 06:14:52;;;;;;;14.30;8.18;;;11.40;99.90;;;;;;5032384;28;20030;-66
2022/09/19 06:17:17;;;;;;;15.93;4.18;;;11.50;99.90;;;;;;5032307;28;20375;-67
2022/09/19 06:19:43;;;;;;;11.68;3.50;;;11.50;99.90;;;;;;5032760;28;20025;-66
2022/09/19 06:22:08;;;;;;;14.48;3.60;;;11.50;99.90;;;;;;5032692;28;20116;-67
2022/09/19 06:24:34;;;;;;;18.65;4.00;;;11.60;99.90;;;;;;5032761;28;20049;-68
2022/09/19 06:27:00;;;;;;;18.00;5.47;;;11.60;99.90;;;;;;5031856;28;20082;-67
2022/09/19 06:29:25;;;;;;;12.52;3.97;;;11.60;99.90;;;;;;5030445;28;20045;-66
2022/09/19 06:31:51;;;;;;;23.00;4.45;;;11.50;99.90;;;;;;5031886;28;20022;-65
2022/09/19 06:34:17;;;;;;;14.50;3.83;;;11.50;99.90;;;;;;5032165;28;20030;-66
2022/09/19 06:36:44;;;;;;;22.33;5.47;;;11.60;99.90;;;;;;5031752;28;20017;-65
2022/09/19 06:39:10;;;;;;;21.48;4.10;;;11.70;99.90;;;;;;5032776;28;20053;-65
2022/09/19 06:41:36;;;;;;;15.20;4.22;;;11.70;99.90;;;;;;5030677;28;20057;-65
2022/09/19 06:44:02;;;;;;;17.15;4.95;;;11.70;99.90;;;;;;5031971;28;20065;-65
2022/09/19 06:46:30;;;;;;;13.25;4.13;;;11.80;99.90;;;;;;5032329;28;20025;-65
2022/09/19 06:48:55;;;;;;;18.20;4.90;;;11.80;99.90;;;;;;5032729;28;20764;-65
2022/09/19 06:51:21;;;;;;;12.70;3.92;;;11.90;99.90;;;;;;5031890;28;20022;-65
2022/09/19 06:53:47;;;;;;;17.55;4.75;;;11.90;99.90;;;;;;5031886;28;20437;-66
2022/09/19 06:56:13;;;;;;;17.02;4.03;;;12.00;99.90;;;;;;5030669;28;20029;-65
2022/09/19 06:58:39;;;;;;;18.13;3.58;;;12.00;99.90;;;;;;5030977;28;20108;-65
2022/09/19 07:01:05;;;;;;;13.18;4.60;;;12.00;99.90;;;;;;5031149;28;20121;-65
2022/09/19 07:03:33;;;;;;;20.52;4.55;;;12.10;99.90;;;;;;5030822;28;20817;-66
2022/09/19 07:06:02;;;;;;;13.45;4.32;;;12.20;99.90;;;;;;5012087;28;20394;-65
2022/09/19 07:08:27;;;;;;;17.38;5.85;;;12.30;99.90;;;;;;5011910;28;20034;-66
2022/09/19 07:10:56;;;;;;;23.23;4.55;;;12.40;99.90;;;;;;5011644;28;20414;-65
2022/09/19 07:13:22;;;;;;;17.52;4.45;;;12.50;99.90;;;;;;5012506;28;20038;-66
2022/09/19 07:15:48;;;;;;;16.63;4.80;;;12.50;99.90;;;;;;5012534;28;20476;-65
2022/09/19 07:18:14;;;;;;;23.35;4.30;;;12.70;99.90;;;;;;5014579;28;20037;-65
2022/09/19 07:20:41;;;;;;;21.65;4.55;;;12.60;99.90;;;;;;5032159;28;20029;-65
2022/09/19 07:23:13;;;;;;;18.75;4.43;;;12.70;99.90;;;;;;5031212;28;20026;-65
2022/09/19 07:25:39;;;;;;;21.98;4.82;;;12.70;99.90;;;;;;5032508;28;20029;-66
2022/09/19 07:28:08;;;;;;;14.82;4.65;;;12.70;99.90;;;;;;5031384;28;20033;-66
2022/09/19 07:30:35;;;;;;;14.27;3.97;;;12.70;99.90;;;;;;5031525;28;20108;-67
2022/09/19 07:33:02;;;;;;;19.85;3.85;;;12.80;99.90;;;;;;5030366;28;20119;-66
2022/09/19 07:35:30;;;;;;;16.90;3.35;;;12.80;99.90;;;;;;5029376;28;20010;-65
2022/09/19 07:37:56;;;;;;;17.48;3.70;;;12.90;99.90;;;;;;5029872;28;20029;-65
2022/09/19 07:40:22;;;;;;;12.93;3.60;;;13.00;99.90;;;;;;5031457;28;20067;-66
2022/09/19 07:42:48;;;;;;;17.17;4.13;;;13.10;99.90;;;;;;5031632;28;20033;-65
2022/09/19 07:45:16;;;;;;;15.48;3.88;;;13.20;99.90;;;;;;5032013;28;20092;-65
2022/09/19 07:47:45;;;;;;;17.17;3.80;;;13.20;99.90;;;;;;5030676;28;20410;-66
2022/09/19 07:50:14;;;;;;;16.38;3.60;;;13.30;99.90;;;;;;5031378;28;20025;-66
2022/09/19 07:52:40;;;;;;;13.20;3.03;;;13.30;99.90;;;;;;5029949;28;20014;-66
2022/09/19 07:55:06;;;;;;;13.52;3.10;;;13.40;99.90;;;;;;5031586;28;20804;-65
2022/09/19 07:57:32;;;;;;;14.98;3.38;;;13.40;99.90;;;;;;5031070;28;20052;-66
2022/09/19 07:59:58;;;;;;;10.52;3.95;;;13.40;99.90;;;;;;5031046;28;20065;-66
2022/09/19 08:02:24;;;;;;;15.77;2.95;;;13.50;99.90;;;;;;5027887;28;20083;-66
2022/09/19 08:04:49;;;;;;;16.13;3.38;;;13.50;99.90;;;;;;5024388;28;20030;-66
2022/09/19 08:07:15;;;;;;;19.23;3.20;;;13.50;99.90;;;;;;5027976;28;20490;-65
2022/09/19 08:09:40;;;;;;;22.52;3.40;;;13.60;99.90;;;;;;5027033;28;20368;-66
2022/09/19 08:12:09;;;;;;;14.48;2.90;;;13.60;99.90;;;;;;5017830;28;20056;-67
2022/09/19 08:14:35;;;;;;;17.98;2.70;;;13.70;99.90;;;;;;5027197;28;20482;-66
2022/09/19 08:17:00;;;;;;;16.83;3.13;;;13.80;99.90;;;;;;5025855;28;20049;-66
2022/09/19 08:19:26;;;;;;;13.05;3.20;;;14.00;99.90;;;;;;5025952;28;20037;-67
2022/09/19 08:21:53;;;;;;;8.80;2.42;;;14.10;99.90;;;;;;5029288;28;20049;-66
2022/09/19 08:24:19;;;;;;;15.57;3.00;;;14.10;99.90;;;;;;5023014;28;20478;-66
2022/09/19 08:26:45;;;;;;;16.00;2.83;;;14.10;99.90;;;;;;5025531;28;20097;-66
2022/09/19 08:29:10;;;;;;;10.82;2.42;;;14.10;99.90;;;;;;5026925;28;20453;-66
2022/09/19 08:31:36;;;;;;;15.52;2.90;;;14.20;99.90;;;;;;5027892;28;20097;-66
2022/09/19 08:34:02;;;;;;;12.55;2.95;;;14.30;99.90;;;;;;5032352;28;20581;-66
2022/09/19 08:36:28;;;;;;;14.57;3.10;;;14.40;99.90;;;;;;5022264;28;20049;-65
2022/09/19 08:38:54;;;;;;;13.63;3.13;;;14.50;99.90;;;;;;5033724;28;20458;-66
2022/09/19 08:41:40;;;;;;;8.80;2.45;;;14.50;99.90;;;;;;5033397;28;20028;-66
2022/09/19 08:44:16;;;;;;;15.45;2.58;;;14.60;99.90;;;;;;5032538;28;20036;-66
2022/09/19 08:46:53;;;;;;;17.73;2.47;;;14.70;99.90;;;;;;5031132;28;20106;-66
2022/09/19 08:49:33;;;;;;;15.68;3.03;;;14.70;99.90;;;;;;5033342;28;20084;-66
2022/09/19 08:52:08;;;;;;;11.68;2.70;;;14.80;99.90;;;;;;5032013;28;20022;-65
2022/09/19 08:54:36;;;;;;;20.92;2.72;;;14.80;99.90;;;;;;5032249;28;20021;-67
2022/09/19 08:57:05;;;;;;;13.57;2.33;;;14.90;99.90;;;;;;5033434;28;20033;-66
2022/09/19 08:59:37;;;;;;;8.30;2.53;;;15.00;99.90;;;;;;5030804;28;20056;-67
2022/09/19 09:02:20;;;;;;;8.18;2.78;;;15.10;99.90;;;;;;5033837;28;20478;-67
2022/09/19 09:04:46;;;;;;;18.80;3.13;;;15.20;99.90;;;;;;5033764;28;20053;-66
2022/09/19 09:08:13;;;;;;;9.13;2.78;;;15.30;99.90;;;;;;5033539;28;20030;-67
2022/09/19 09:10:50;;;;;;;15.57;3.20;;;15.40;99.90;;;;;;5029690;28;20029;-66
2022/09/19 09:13:21;;;;;;;13.35;3.08;;;15.60;99.90;;;;;;5030021;28;20148;-67
2022/09/19 09:16:00;;;;;;;11.80;2.78;;;15.60;99.90;;;;;;5031790;28;20052;-66
2022/09/19 09:18:32;;;;;;;8.50;2.25;;;15.60;99.90;;;;;;5032048;28;20025;-66
2022/09/19 09:20:57;;;;;;;9.37;2.83;;;15.70;99.90;;;;;;5033215;28;20098;-67
2022/09/19 09:23:33;;;;;;;22.23;3.58;;;15.70;99.90;;;;;;5032932;28;20525;-66
2022/09/19 09:26:21;;;;;;;12.40;3.03;;;15.80;99.90;;;;;;5033458;28;20044;-67
2022/09/19 09:29:32;;;;;;;14.90;3.15;;;15.90;99.90;;;;;;5031983;28;20069;-67
2022/09/19 09:32:01;;;;;;;12.13;2.83;;;16.00;99.90;;;;;;5031637;28;20465;-66
2022/09/19 09:34:43;;;;;;;18.35;2.60;;;16.10;99.90;;;;;;5033010;28;20100;-66
2022/09/19 09:37:19;;;;;;;13.95;3.17;;;16.20;99.90;;;;;;5032094;28;20025;-66
2022/09/19 09:39:59;;;;;;;13.00;2.63;;;16.20;99.90;;;;;;5032705;28;20031;-68
2022/09/19 09:42:59;;;;;;;14.75;2.90;;;16.30;99.90;;;;;;5033342;28;20049;-67
2022/09/19 09:45:39;;;;;;;10.05;2.17;;;16.40;99.90;;;;;;5033597;28;20052;-67
2022/09/19 09:48:20;;;;;;;14.95;2.45;;;16.40;99.90;;;;;;5033306;28;20044;-67
2022/09/19 09:51:04;;;;;;;19.70;4.32;;;16.50;99.90;;;;;;5032623;28;20071;-66
2022/09/19 09:53:48;;;;;;;8.95;2.58;;;16.50;99.90;;;;;;5031399;28;20029;-67
2022/09/19 09:56:39;;;;;;;11.68;2.42;;;16.60;99.90;;;;;;5020993;28;20037;-68
2022/09/19 09:59:04;;;;;;;11.27;3.13;;;16.50;99.90;;;;;;5021013;28;20048;-67
2022/09/19 10:04:24;;;;;;;15.52;3.22;;;16.70;99.90;;;;;;5022345;28;20130;-67
2022/09/19 10:07:12;;;;;;;11.38;2.80;;;16.80;99.90;;;;;;5028233;28;20097;-67
2022/09/19 10:09:42;;;;;;;11.98;2.38;;;16.90;99.90;;;;;;5022301;28;20033;-67
2022/09/19 10:12:21;;;;;;;16.90;2.60;;;17.00;99.90;;;;;;5026326;28;20039;-67
2022/09/19 10:14:47;;;;;;;12.45;2.35;;;17.10;99.90;;;;;;5019346;28;20034;-66
2022/09/19 10:17:18;;;;;;;9.70;2.33;;;17.30;99.90;;;;;;5019940;28;20500;-66
2022/09/19 10:19:49;;;;;;;13.50;2.15;;;17.50;99.90;;;;;;5021910;28;20024;-66
2022/09/19 10:22:16;;;;;;;14.20;2.72;;;17.60;99.90;;;;;;5027036;28;20018;-67
2022/09/19 10:24:54;;;;;;;8.82;2.38;;;17.80;99.90;;;;;;5027516;28;20025;-67
2022/09/19 10:27:21;;;;;;;7.05;1.80;;;18.00;99.90;;;;;;5017413;28;20036;-67
2022/09/19 10:30:08;;;;;;;8.45;2.13;;;17.90;99.90;;;;;;5027916;28;20057;-68
2022/09/19 10:32:37;;;;;;;8.10;2.15;;;18.10;99.90;;;;;;5019129;28;20215;-67
2022/09/19 10:35:26;;;;;;;9.02;2.03;;;18.10;99.90;;;;;;5027165;28;20123;-67
2022/09/19 10:38:02;;;;;;;9.88;1.77;;;18.10;99.90;;;;;;5023854;28;20029;-67
2022/09/19 10:40:30;;;;;;;7.45;1.75;;;17.90;99.90;;;;;;5022294;28;20079;-67
2022/09/19 10:42:57;;;;;;;11.25;1.98;;;17.80;99.90;;;;;;5026527;28;20062;-67
2022/09/19 10:45:30;;;;;;;6.75;1.55;;;18.00;99.90;;;;;;5034440;28;20026;-67
2022/09/19 10:48:26;;;;;;;8.10;1.63;;;18.20;99.90;;;;;;5027370;28;20041;-67
2022/09/19 10:50:52;;;;;;;9.32;1.25;;;18.20;99.90;;;;;;5027135;28;20034;-67
2022/09/19 10:53:30;;;;;;;10.77;1.48;;;18.10;99.90;;;;;;5023263;28;20087;-67
2022/09/19 10:55:59;;;;;;;6.65;1.52;;;18.40;99.90;;;;;;5028655;28;20030;-68
2022/09/19 10:58:27;;;;;;;5.55;1.25;;;18.60;99.90;;;;;;5031472;28;20032;-67
2022/09/19 11:00:57;;;;;;;12.18;2.40;;;18.70;99.90;;;;;;5030278;28;20036;-66
2022/09/19 11:03:35;;;;;;;7.82;1.45;;;18.80;99.90;;;;;;5032208;28;20021;-67
2022/09/19 11:06:16;;;;;;;8.35;1.38;;;18.70;99.90;;;;;;5016277;28;20094;-67
2022/09/19 11:08:47;;;;;;;7.68;1.20;;;18.90;99.90;;;;;;5028980;28;20388;-67
2022/09/19 11:11:40;;;;;;;3.95;0.95;;;19.00;99.90;;;;;;5032161;28;20033;-67
2022/09/19 11:14:06;;;;;;;8.35;1.40;;;18.90;99.90;;;;;;5025046;28;20330;-67
2022/09/19 11:17:00;;;;;;;4.90;1.20;;;19.00;99.90;;;;;;5034723;28;20168;-67
2022/09/19 11:20:07;;;;;;;6.63;1.58;;;19.30;99.90;;;;;;5031840;28;20112;-67
2022/09/19 11:22:57;;;;;;;7.18;1.40;;;19.40;99.90;;;;;;5020097;28;20128;-67
2022/09/19 11:25:34;;;;;;;3.05;1.10;;;19.50;99.90;;;;;;5026200;28;20029;-68
2022/09/19 11:28:18;;;;;;;9.95;1.67;;;19.50;99.90;;;;;;5027700;28;20450;-68
2022/09/19 11:31:06;;;;;;;9.45;1.23;;;19.40;99.90;;;;;;5027371;28;20024;-67
2022/09/19 11:33:38;;;;;;;6.43;1.25;;;19.40;99.90;;;;;;5028416;28;20026;-67
2022/09/19 11:36:04;;;;;;;;;;;19.30;99.90;;;;;;5022316;28;20213;-67
2022/09/19 11:38:52;;;;;;;4.70;1.17;;;19.10;99.90;;;;;;5025855;28;20004;-67
2022/09/19 11:41:31;;;;;;;6.68;1.50;;;19.00;99.90;;;;;;5034232;28;20021;-67
2022/09/19 11:44:20;;;;;;;7.13;1.70;;;18.80;99.90;;;;;;5032163;28;20116;-67
2022/09/19 11:47:16;;;;;;;5.13;1.63;;;18.70;99.90;;;;;;5027645;28;20091;-67
2022/09/19 11:49:56;;;;;;;9.60;1.50;;;18.50;99.90;;;;;;5028465;28;20034;-68
2022/09/19 11:52:28;;;;;;;17.20;2.05;;;18.30;99.90;;;;;;5030103;28;20378;-67
2022/09/19 11:55:16;;;;;;;4.65;1.30;;;18.30;99.90;;;;;;5034235;28;20064;-68
2022/09/19 11:57:54;;;;;;;8.70;1.60;;;18.30;99.90;;;;;;5028558;28;20053;-67
2022/09/19 12:00:21;;;;;;;8.55;1.55;;;18.30;99.90;;;;;;5026714;28;20021;-67
2022/09/19 12:03:10;;;;;;;8.85;1.55;;;18.40;99.90;;;;;;5028591;28;20025;-68
2022/09/19 12:05:38;;;;;;;10.70;2.58;;;18.70;99.90;;;;;;5027644;28;20163;-67
2022/09/19 12:08:52;;;;;;;7.82;1.33;;;18.70;99.90;;;;;;5029114;28;20037;-68
2022/09/19 12:11:22;;;;;;;11.27;1.83;;;18.60;99.90;;;;;;5026419;28;20478;-67
2022/09/19 12:13:54;;;;;;;4.32;1.08;;;18.50;99.90;;;;;;5031950;28;20064;-67
2022/09/19 12:16:38;;;;;;;5.53;1.60;;;18.70;99.90;;;;;;5026553;28;20041;-67
2022/09/19 12:19:33;;;;;;;8.30;1.42;;;18.90;99.90;;;;;;5021048;28;20025;-67
2022/09/19 12:22:06;;;;;;;5.72;1.10;;;19.10;99.90;;;;;;5020128;28;20021;-68
2022/09/19 12:24:54;;;;;;;7.57;1.13;;;19.30;99.90;;;;;;5028183;28;20033;-69
2022/09/19 12:27:22;;;;;;;6.10;1.30;;;19.20;99.90;;;;;;5031678;28;20088;-69
2022/09/19 12:30:05;;;;;;;4.22;1.13;;;19.00;99.90;;;;;;5027328;28;20076;-68
2022/09/19 12:32:38;;;;;;;7.72;1.38;;;18.90;99.90;;;;;;5036905;28;20057;-69
2022/09/19 12:35:19;;;;;;;5.65;1.13;;;18.70;99.90;;;;;;5028902;28;20079;-69
2022/09/19 12:38:02;;;;;;;10.75;1.38;;;18.60;99.90;;;;;;5037510;28;20104;-68
2022/09/19 12:40:40;;;;;;;10.95;1.40;;;18.50;99.90;;;;;;5032172;28;20339;-68
2022/09/19 12:43:18;;;;;;;5.47;1.15;;;18.40;99.90;;;;;;5029613;28;20478;-70
2022/09/19 12:45:57;;;;;;;7.15;1.50;;;18.30;99.90;;;;;;5030683;28;20052;-68
2022/09/19 12:48:50;;;;;;;6.32;1.00;;;18.40;99.90;;;;;;5026897;28;20029;-68
2022/09/19 12:51:33;;;;;;;3.67;1.10;;;18.60;99.90;;;;;;5026918;28;20034;-68
2022/09/19 12:54:01;;;;;;;11.88;1.58;;;18.70;99.90;;;;;;5036069;28;20593;-68
2022/09/19 12:56:35;;;;;;;5.53;1.15;;;18.90;99.90;;;;;;5029691;28;20026;-69
2022/09/19 12:59:15;;;;;;;7.60;1.30;;;19.10;99.90;;;;;;5037160;28;20040;-68
2022/09/19 13:01:52;;;;;;;4.97;1.27;;;19.20;99.90;;;;;;5022665;28;20026;-69
2022/09/19 13:04:25;;;;;;;7.30;1.85;;;19.20;99.90;;;;;;5024585;28;20510;-68
2022/09/19 13:07:04;;;;;;;5.90;1.15;;;19.40;99.90;;;;;;5025787;28;20053;-68
2022/09/19 13:09:43;;;;;;;6.78;0.90;;;19.50;99.90;;;;;;5025172;28;20485;-68
2022/09/19 13:12:17;;;;;;;4.32;1.20;;;19.20;99.90;;;;;;5035164;28;20037;-68
2022/09/19 13:14:51;;;;;;;8.05;1.15;;;19.10;99.90;;;;;;5031566;28;20498;-68